FAWC Weather

FACT METAR/TAF

[source: ADDS]
METAR
FACT 270000Z 22007KT CAVOK 16/13 Q1016 NOSIG =
TAF
TAF FACT 262200Z 2700/2806 VRB03KT 9999 FEW010 SCT025 FM270700 27006KT 9999 FEW010 BKN025 FM271500 21010KT 9999 SCT030 TX24/2712ZTN13/2705Z =
SR / SS: 04:53 / 16:46 UTC (FAWC 2017-03-27)

Polls

Flying Interest Is?
 
FacebookMySpaceTwitterDiggDeliciousStumbleuponGoogle BookmarksRedditNewsvineTechnoratiLinkedinMixxRSS Feed